Time;durP1;ratioP1;P1;durP2;ratioP2;P2;SDS_P1;SDS_P2;PMS_P1;PMS_P2;Temp;Humidity;BMP_temperature;BMP_pressure;BME280_temperature;BME280_humidity;BME280_pressure;Samples;Min_cycle;Max_cycle;Signal;HPM_P1;HPM_P2
2022/01/31 00:00:57;;;;;;;15.27;2.97;;;;;;;6.74;100.00;98976.31;4934682;29;20386;-81
2022/01/31 00:03:23;;;;;;;10.70;2.30;;;;;;;6.79;100.00;98966.19;4922311;28;20051;-81
2022/01/31 00:05:49;;;;;;;18.10;3.05;;;;;;;6.65;100.00;98967.72;4946127;29;20039;-82
2022/01/31 00:08:21;;;;;;;14.20;2.20;;;;;;;6.54;100.00;99000.19;4942899;29;20042;-82
2022/01/31 00:10:47;;;;;;;15.10;2.67;;;;;;;6.42;100.00;99025.03;4923451;29;20040;-82
2022/01/31 00:13:18;;;;;;;9.48;2.22;;;;;;;6.43;100.00;98993.56;4924168;29;20171;-83
2022/01/31 00:15:47;;;;;;;15.68;2.85;;;;;;;5.66;100.00;99046.09;4926341;29;20047;-82
2022/01/31 00:18:13;;;;;;;19.45;2.80;;;;;;;6.14;100.00;98999.34;4938442;29;20474;-85
2022/01/31 00:20:39;;;;;;;17.50;3.47;;;;;;;5.46;100.00;99007.34;4924462;29;20064;-84
2022/01/31 00:23:05;;;;;;;14.55;2.92;;;;;;;5.65;100.00;98989.78;4935735;29;20055;-83
2022/01/31 00:25:31;;;;;;;18.80;3.50;;;;;;;5.51;100.00;98981.66;4924946;29;20039;-83
2022/01/31 00:27:56;;;;;;;18.05;2.63;;;;;;;5.40;100.00;99023.63;4940272;29;20039;-82
2022/01/31 00:30:22;;;;;;;14.30;2.53;;;;;;;5.48;100.00;99028.81;4927965;29;20062;-83
2022/01/31 00:32:48;;;;;;;17.15;2.80;;;;;;;5.41;100.00;99010.47;4927543;29;20027;-83
2022/01/31 00:35:14;;;;;;;12.15;2.60;;;;;;;5.41;100.00;99007.03;4923266;29;20076;-84
2022/01/31 00:37:40;;;;;;;14.60;3.10;;;;;;;5.63;100.00;98981.31;4911373;29;20114;-84
2022/01/31 00:40:07;;;;;;;19.42;2.85;;;;;;;6.03;100.00;99013.53;4926209;29;20039;-84
2022/01/31 00:42:33;;;;;;;11.65;2.60;;;;;;;6.09;100.00;98976.41;4938022;29;20031;-83
2022/01/31 00:45:25;;;;;;;21.33;2.88;;;;;;;5.67;100.00;99003.44;4922229;29;20034;-83
2022/01/31 00:47:49;;;;;;;17.38;3.63;;;;;;;5.54;100.00;99025.59;4924686;29;20115;-84
2022/01/31 00:50:17;;;;;;;16.20;2.20;;;;;;;5.61;100.00;99019.72;4911188;29;20105;-83
2022/01/31 00:52:44;;;;;;;17.05;2.72;;;;;;;5.66;100.00;98980.97;4925288;29;20039;-83
2022/01/31 00:55:12;;;;;;;17.55;2.80;;;;;;;5.76;100.00;99027.69;4923323;29;20421;-82
2022/01/31 00:57:40;;;;;;;21.77;2.63;;;;;;;5.85;100.00;99058.00;4914858;29;20024;-83
2022/01/31 01:00:07;;;;;;;24.95;3.38;;;;;;;6.71;100.00;99054.91;4915934;29;20024;-82
2022/01/31 01:02:34;;;;;;;14.35;2.33;;;;;;;15.97;100.00;99083.16;4903465;29;20032;-85
2022/01/31 01:04:59;;;;;;;11.65;2.35;;;;;;;5.08;100.00;99074.63;4925773;29;20036;-83
2022/01/31 01:07:25;;;;;;;12.38;1.80;;;;;;;4.93;100.00;99046.63;4924590;29;20040;-84
2022/01/31 01:09:50;;;;;;;11.30;2.08;;;;;;;4.89;100.00;99047.88;4937839;29;20036;-84
2022/01/31 01:12:17;;;;;;;20.13;2.13;;;;;;;4.89;100.00;99125.13;4924023;29;20385;-85
2022/01/31 01:14:45;;;;;;;18.23;3.03;;;;;;;4.94;100.00;99040.44;4940008;29;20067;-84
2022/01/31 01:17:11;;;;;;;13.82;3.03;;;;;;;5.49;100.00;99053.88;4941787;28;20131;-86
2022/01/31 01:19:37;;;;;;;17.73;4.30;;;;;;;5.23;100.00;99036.59;4945053;29;20107;-85
2022/01/31 01:23:01;;;;;;;9.65;2.53;;;;;;;-148.14;100.00;65945.72;4946476;29;20043;-84
2022/01/31 01:26:25;;;;;;;;;;;;;;;-148.14;100.00;65945.72;4915436;29;21821;-83
2022/01/31 01:29:50;;;;;;;14.60;2.20;;;;;;;-148.14;100.00;65945.72;4937487;29;19926;-84
2022/01/31 01:33:19;;;;;;;13.50;2.50;;;;;;;-148.14;100.00;65945.72;4940684;29;20047;-83
2022/01/31 01:36:45;;;;;;;19.08;4.05;;;;;;;-148.14;100.00;65945.72;4922392;29;20036;-83
2022/01/31 01:40:10;;;;;;;20.63;3.78;;;;;;;-148.14;100.00;65945.72;4940956;29;20122;-85
2022/01/31 01:43:34;;;;;;;17.63;2.80;;;;;;;-148.14;100.00;65945.72;4938862;29;20051;-83
2022/01/31 01:46:58;;;;;;;15.90;2.50;;;;;;;-148.14;100.00;65945.72;4948408;29;20027;-83
2022/01/31 01:50:22;;;;;;;29.05;3.55;;;;;;;-148.14;100.00;65945.72;4921197;29;20031;-83
2022/01/31 01:53:46;;;;;;;16.90;3.25;;;;;;;-148.14;100.00;65945.72;4939306;29;20078;-84
2022/01/31 01:57:11;;;;;;;24.70;3.17;;;;;;;-148.14;100.00;65945.72;4928178;29;20099;-83
2022/01/31 02:00:52;;;;;;;25.75;3.58;;;;;;;-148.14;100.00;65945.72;4926183;29;20024;-86
2022/01/31 02:04:17;;;;;;;14.25;2.20;;;;;;;-148.14;100.00;65945.72;4927625;29;20095;-83
2022/01/31 02:07:38;;;;;;;15.00;2.10;;;;;;;-148.14;100.00;65945.72;4913270;29;20430;-84
2022/01/31 02:11:03;;;;;;;7.65;1.70;;;;;;;-148.14;100.00;65945.72;4942287;29;20031;-83
2022/01/31 02:14:26;;;;;;;13.18;1.80;;;;;;;-148.14;100.00;65945.72;4928295;29;20112;-83
2022/01/31 02:16:53;;;;;;;10.00;1.58;;;;;;;6.74;100.00;99059.00;4928013;29;20122;-83
2022/01/31 02:19:21;;;;;;;15.82;1.98;;;;;;;6.80;100.00;99050.47;4922551;29;20501;-83
2022/01/31 02:21:51;;;;;;;16.15;4.20;;;;;;;6.72;100.00;99041.72;4939580;29;20028;-84
2022/01/31 02:24:17;;;;;;;20.80;3.45;;;;;;;6.68;100.00;99050.03;4926291;29;20027;-85
2022/01/31 02:26:42;;;;;;;27.38;3.22;;;;;;;6.85;100.00;99056.81;4923294;28;20478;-84
2022/01/31 02:29:11;;;;;;;26.63;3.70;;;;;;;6.90;100.00;99121.56;4940073;29;20039;-84
2022/01/31 02:31:42;;;;;;;36.35;6.38;;;;;;;6.93;100.00;99037.72;4943722;29;20060;-82
2022/01/31 02:34:09;;;;;;;27.52;3.97;;;;;;;7.23;100.00;99027.41;4948565;29;20110;-82
2022/01/31 02:36:34;;;;;;;30.20;4.20;;;;;;;6.79;100.00;99046.25;4927679;29;20039;-83
2022/01/31 02:39:00;;;;;;;33.80;5.30;;;;;;;7.15;100.00;99074.47;4929885;29;20019;-83
2022/01/31 02:41:27;;;;;;;12.85;2.88;;;;;;;7.30;100.00;99069.31;4912637;29;20095;-84
2022/01/31 02:43:54;;;;;;;22.90;3.65;;;;;;;7.02;100.00;99050.69;4927803;29;20043;-83
2022/01/31 02:46:23;;;;;;;26.23;3.63;;;;;;;6.92;100.00;99093.50;4926058;29;20031;-83
2022/01/31 02:48:51;;;;;;;22.98;3.33;;;;;;;7.12;100.00;99069.59;4927356;29;20098;-82
2022/01/31 02:51:21;;;;;;;24.65;3.55;;;;;;;6.66;100.00;99088.53;4927816;29;20448;-83
2022/01/31 02:53:46;;;;;;;23.08;3.33;;;;;;;6.69;100.00;99133.34;4941388;29;20035;-84
2022/01/31 02:56:12;;;;;;;26.10;4.07;;;;;;;6.90;100.00;99105.06;4928780;29;20085;-82
2022/01/31 02:58:38;;;;;;;39.13;4.05;;;;;;;6.95;100.00;99127.06;4911567;29;20107;-82
2022/01/31 03:01:04;;;;;;;28.13;3.72;;;;;;;7.11;100.00;99092.25;4922763;29;20050;-83
2022/01/31 03:03:30;;;;;;;26.40;3.53;;;;;;;7.22;100.00;99091.06;4939182;29;20036;-84
2022/01/31 03:05:55;;;;;;;35.35;4.43;;;;;;;7.33;100.00;99107.34;4922475;29;20066;-84
2022/01/31 03:08:23;;;;;;;32.80;3.78;;;;;;;7.20;100.00;99092.22;4938054;29;20031;-85
2022/01/31 03:10:50;;;;;;;33.47;4.72;;;;;;;7.17;100.00;99116.88;4924818;29;20031;-84
2022/01/31 03:13:16;;;;;;;28.10;5.60;;;;;;;6.55;100.00;99095.72;4918309;29;20501;-83
2022/01/31 03:15:43;;;;;;;25.08;4.30;;;;;;;7.06;100.00;99104.19;4934436;29;20482;-84
2022/01/31 03:18:10;;;;;;;30.88;4.85;;;;;;;6.98;100.00;99082.38;4935303;29;20115;-83
2022/01/31 03:20:36;;;;;;;35.75;5.53;;;;;;;7.32;100.00;99095.25;4934752;29;20534;-83
2022/01/31 03:23:02;;;;;;;32.50;4.20;;;;;;;6.71;100.00;99094.03;4918405;29;20122;-83
2022/01/31 03:25:28;;;;;;;36.05;5.18;;;;;;;6.96;100.00;99086.13;4916916;29;20038;-83
2022/01/31 03:27:55;;;;;;;34.75;5.05;;;;;;;7.15;100.00;99143.13;4917591;29;20494;-84
2022/01/31 03:30:23;;;;;;;40.00;5.65;;;;;;;7.37;100.00;99106.00;4934825;29;20054;-86
2022/01/31 03:32:48;;;;;;;25.65;4.32;;;;;;;7.38;100.00;99110.25;4935039;29;20062;-83
2022/01/31 03:35:14;;;;;;;25.23;4.55;;;;;;;7.69;100.00;99112.03;4934412;29;20059;-83
2022/01/31 03:37:40;;;;;;;34.95;5.20;;;;;;;7.04;100.00;99130.47;4934617;29;20074;-83
2022/01/31 03:40:07;;;;;;;33.00;5.45;;;;;;;6.97;100.00;99145.97;4917309;29;20154;-83
2022/01/31 03:42:34;;;;;;;41.22;5.85;;;;;;;6.97;100.00;99119.88;4917203;29;20549;-84
2022/01/31 03:44:59;;;;;;;37.45;5.57;;;;;;;6.64;100.00;99171.34;4934211;29;20077;-83
2022/01/31 03:47:25;;;;;;;36.97;7.75;;;;;;;6.75;100.00;99157.94;4911662;29;20040;-82
2022/01/31 03:49:51;;;;;;;31.77;6.30;;;;;;;7.02;100.00;99149.88;4917692;29;20040;-82
2022/01/31 03:52:17;;;;;;;39.10;6.38;;;;;;;6.81;100.00;99149.47;4917800;29;20090;-83
2022/01/31 03:54:43;;;;;;;30.77;6.38;;;;;;;6.76;100.00;99158.75;4933614;29;20027;-82
2022/01/31 03:57:09;;;;;;;31.98;5.00;;;;;;;6.75;100.00;99157.13;4917170;29;20059;-83
2022/01/31 03:59:35;;;;;;;30.95;5.55;;;;;;;6.81;100.00;99159.91;4934785;29;20422;-83
2022/01/31 04:02:03;;;;;;;26.85;5.40;;;;;;;6.85;100.00;99163.78;4917075;29;20036;-83
2022/01/31 04:04:28;;;;;;;36.05;5.18;;;;;;;6.73;100.00;99154.69;4901908;29;20160;-84
2022/01/31 04:06:54;;;;;;;45.50;6.40;;;;;;;6.81;100.00;99172.94;4917439;29;20061;-82
2022/01/31 04:09:19;;;;;;;29.00;5.57;;;;;;;6.92;100.00;99145.69;4916970;29;20032;-81
2022/01/31 04:11:45;;;;;;;36.42;6.35;;;;;;;6.89;100.00;99168.69;4917684;29;20115;-82
2022/01/31 04:14:12;;;;;;;25.98;4.88;;;;;;;6.74;100.00;99165.94;4933694;29;20565;-82
2022/01/31 04:16:37;;;;;;;32.58;5.60;;;;;;;6.85;100.00;99147.31;4901384;29;20056;-83
2022/01/31 04:19:03;;;;;;;31.65;4.72;;;;;;;6.71;100.00;99148.81;4917334;29;20038;-83
2022/01/31 04:21:28;;;;;;;34.85;5.78;;;;;;;6.99;100.00;99153.66;4916209;29;20035;-81
2022/01/31 04:23:54;;;;;;;32.60;5.03;;;;;;;6.90;100.00;99145.03;4917292;29;20509;-82
2022/01/31 04:26:21;;;;;;;34.65;5.50;;;;;;;6.72;100.00;99138.22;4917276;29;20043;-82
2022/01/31 04:28:51;;;;;;;31.05;4.72;;;;;;;6.71;100.00;99144.44;4916200;29;20474;-83
2022/01/31 04:33:50;;;;;;;22.73;4.53;;;;;;;6.54;100.00;99150.66;4933185;29;20482;-83
2022/01/31 04:36:17;;;;;;;26.92;4.47;;;;;;;6.68;100.00;99142.16;4917311;29;20035;-83
2022/01/31 04:38:48;;;;;;;24.80;4.03;;;;;;;6.38;100.00;99149.69;4934398;29;20449;-81
2022/01/31 04:41:14;;;;;;;19.52;4.20;;;;;;;6.58;100.00;99167.59;4914793;29;20063;-82
2022/01/31 04:43:39;;;;;;;30.58;4.63;;;;;;;6.49;100.00;99164.19;4900693;29;20079;-82
2022/01/31 04:46:07;;;;;;;20.60;4.13;;;;;;;6.55;100.00;99167.94;4916955;29;20036;-84
2022/01/31 04:48:34;;;;;;;24.65;3.78;;;;;;;6.37;100.00;99187.16;4932820;29;20496;-82
2022/01/31 04:51:00;;;;;;;21.80;4.65;;;;;;;6.63;100.00;99162.69;4918805;29;20046;-82
2022/01/31 04:53:26;;;;;;;25.02;4.55;;;;;;;6.54;100.00;99195.78;4920720;29;20027;-82
2022/01/31 04:55:52;;;;;;;26.73;4.38;;;;;;;6.36;100.00;99190.75;4919866;29;20028;-82
2022/01/31 04:58:21;;;;;;;18.40;4.75;;;;;;;5.85;100.00;99175.22;4920278;29;20046;-81
2022/01/31 05:00:48;;;;;;;29.08;3.13;;;;;;;5.63;100.00;99200.06;4918557;29;20111;-81
2022/01/31 05:03:17;;;;;;;20.40;4.25;;;;;;;6.39;100.00;99180.00;4937505;29;20039;-81
2022/01/31 05:05:44;;;;;;;16.40;2.83;;;;;;;6.20;100.00;99170.72;4918872;29;20032;-82
2022/01/31 05:08:10;;;;;;;18.05;3.33;;;;;;;5.60;100.00;99223.81;4920030;29;20078;-82
2022/01/31 05:10:42;;;;;;;15.52;3.05;;;;;;;5.42;100.00;99206.50;4901995;29;20119;-82
2022/01/31 05:13:08;;;;;;;25.17;3.95;;;;;;;5.64;100.00;99175.66;4904708;29;20035;-82
2022/01/31 05:15:33;;;;;;;12.15;3.15;;;;;;;6.49;100.00;99181.63;4919314;29;20082;-82
2022/01/31 05:18:02;;;;;;;16.48;3.15;;;;;;;6.26;98.62;99169.25;4937354;29;20071;-86
2022/01/31 05:20:27;;;;;;;15.48;3.47;;;;;;;6.08;100.00;99211.09;4936370;29;20120;-85
2022/01/31 05:22:54;;;;;;;20.70;3.15;;;;;;;5.80;99.97;99170.47;4936958;29;20070;-86
2022/01/31 05:25:19;;;;;;;7.80;2.58;;;;;;;5.63;99.75;99203.50;4937086;29;20439;-85
2022/01/31 05:27:45;;;;;;;11.73;2.65;;;;;;;5.71;100.00;99172.25;4935923;29;20476;-86
2022/01/31 05:30:11;;;;;;;23.85;4.13;;;;;;;5.96;99.89;99190.53;4936882;29;20393;-86
2022/01/31 05:32:36;;;;;;;19.08;3.35;;;;;;;5.74;100.00;99189.34;4920139;29;20036;-86
2022/01/31 05:35:04;;;;;;;20.98;3.83;;;;;;;5.90;100.00;99211.22;4935910;29;20035;-85
2022/01/31 05:37:30;;;;;;;19.50;3.60;;;;;;;5.75;100.00;99177.13;4917123;29;20039;-86
2022/01/31 05:39:56;;;;;;;23.88;3.22;;;;;;;5.73;100.00;99198.16;4936783;29;20074;-85
2022/01/31 05:42:22;;;;;;;28.23;3.80;;;;;;;5.90;100.00;99206.00;4934237;29;20036;-85
2022/01/31 05:44:47;;;;;;;19.50;3.53;;;;;;;5.44;100.00;99217.56;4936796;29;20039;-85
2022/01/31 05:47:15;;;;;;;17.52;3.42;;;;;;;5.78;100.00;99214.09;4932961;29;20046;-86
2022/01/31 05:49:41;;;;;;;14.02;2.97;;;;;;;5.66;100.00;99231.00;4936398;29;20050;-86
2022/01/31 05:52:07;;;;;;;13.35;3.17;;;;;;;5.54;100.00;99254.72;4936739;29;20035;-85
2022/01/31 05:54:35;;;;;;;24.52;3.80;;;;;;;5.86;100.00;99240.16;4918573;29;20027;-85
2022/01/31 05:57:01;;;;;;;16.15;3.22;;;;;;;5.80;100.00;99266.06;4936311;29;20032;-86
2022/01/31 05:59:29;;;;;;;21.15;3.75;;;;;;;5.98;100.00;99260.72;4919486;29;20132;-87
2022/01/31 06:01:54;;;;;;;17.48;3.28;;;;;;;5.93;100.00;99269.00;4934856;29;20034;-84
2022/01/31 06:04:20;;;;;;;18.05;3.47;;;;;;;6.03;100.00;99275.94;4919315;29;20482;-85
2022/01/31 06:06:45;;;;;;;17.67;3.28;;;;;;;6.10;100.00;99284.72;4919116;29;20032;-85
2022/01/31 06:09:11;;;;;;;24.30;3.33;;;;;;;5.78;100.00;99276.63;4935412;29;20126;-86
2022/01/31 06:11:37;;;;;;;29.52;3.17;;;;;;;5.97;100.00;99279.94;4919289;29;20063;-85
2022/01/31 06:14:07;;;;;;;28.67;4.47;;;;;;;5.54;100.00;99280.75;4933094;29;20031;-85
2022/01/31 06:16:33;;;;;;;21.38;3.25;;;;;;;5.76;100.00;99283.78;4919461;29;20047;-86
2022/01/31 06:18:59;;;;;;;12.68;2.60;;;;;;;5.59;100.00;99288.09;4923992;29;20059;-85
2022/01/31 06:21:25;;;;;;;15.95;3.00;;;;;;;5.74;100.00;99283.13;4946806;29;20065;-85
2022/01/31 06:23:51;;;;;;;19.35;3.75;;;;;;;5.64;100.00;99285.03;4908813;29;20086;-86
2022/01/31 06:26:17;;;;;;;15.05;3.22;;;;;;;5.84;100.00;99306.44;4944270;29;20031;-84
2022/01/31 06:28:42;;;;;;;17.45;4.03;;;;;;;5.81;100.00;99281.50;4946178;29;20037;-86
2022/01/31 06:31:08;;;;;;;17.33;3.92;;;;;;;5.86;100.00;99279.25;4946816;29;20046;-85
2022/01/31 06:33:34;;;;;;;18.63;3.67;;;;;;;6.13;99.71;99294.84;4922073;29;20087;-85
2022/01/31 06:36:00;;;;;;;22.65;3.22;;;;;;;5.57;100.00;99285.66;4942745;29;20098;-85
2022/01/31 06:38:28;;;;;;;20.27;3.38;;;;;;;5.66;99.75;99298.69;4942906;29;20036;-86
2022/01/31 06:40:54;;;;;;;18.50;3.13;;;;;;;5.50;99.72;99309.88;4944538;29;20493;-86
2022/01/31 06:43:19;;;;;;;17.95;2.75;;;;;;;5.84;99.53;99322.06;4944510;29;20028;-87
2022/01/31 06:45:45;;;;;;;17.83;2.83;;;;;;;5.99;99.39;99330.09;4944860;29;20562;-86
2022/01/31 06:48:10;;;;;;;15.43;2.80;;;;;;;5.67;99.04;99321.16;4940416;29;20058;-86
2022/01/31 06:50:36;;;;;;;21.60;3.25;;;;;;;5.65;98.80;99308.31;4950073;29;20028;-87
2022/01/31 06:53:02;;;;;;;15.65;3.10;;;;;;;5.85;98.81;99308.88;4942880;29;20038;-87
2022/01/31 06:55:29;;;;;;;15.88;2.67;;;;;;;5.68;97.63;99312.38;4941605;29;20031;-87
2022/01/31 06:57:55;;;;;;;12.82;3.00;;;;;;;5.62;97.68;99328.63;4942237;29;20031;-85
2022/01/31 07:00:22;;;;;;;11.25;2.17;;;;;;;5.83;97.76;99351.72;4943353;29;20054;-86
2022/01/31 07:02:49;;;;;;;15.93;3.58;;;;;;;5.73;97.08;99341.41;4945711;29;20102;-86
2022/01/31 07:05:16;;;;;;;17.08;2.63;;;;;;;5.43;95.84;99383.38;4935145;29;20075;-87
2022/01/31 07:07:42;;;;;;;13.65;2.33;;;;;;;5.55;95.24;99372.69;4919663;29;20098;-86
2022/01/31 07:10:08;;;;;;;15.27;1.90;;;;;;;5.71;94.89;99366.78;4942588;29;20039;-86
2022/01/31 07:12:38;;;;;;;13.95;2.38;;;;;;;5.84;93.38;99371.56;4946381;29;20032;-86
2022/01/31 07:15:09;;;;;;;8.60;1.70;;;;;;;5.82;92.15;99356.09;4941139;28;20060;-86
2022/01/31 07:17:36;;;;;;;7.80;2.10;;;;;;;5.88;89.65;99348.63;4920150;29;20449;-86
2022/01/31 07:20:10;;;;;;;14.95;2.20;;;;;;;5.62;88.38;99394.56;4912721;29;20035;-87
2022/01/31 07:22:38;;;;;;;13.93;1.73;;;;;;;5.64;88.09;99399.63;4922594;29;20114;-86
2022/01/31 07:25:09;;;;;;;11.68;2.13;;;;;;;5.92;89.42;99402.06;4940326;29;20497;-88
2022/01/31 07:27:36;;;;;;;10.18;2.38;;;;;;;5.90;89.71;99364.94;4918652;29;20110;-86
2022/01/31 07:30:04;;;;;;;11.38;2.20;;;;;;;5.66;90.72;99421.09;4939224;29;20043;-87
2022/01/31 07:32:30;;;;;;;12.63;2.47;;;;;;;5.86;92.72;99403.50;4943480;29;20042;-86
2022/01/31 07:34:57;;;;;;;15.10;2.30;;;;;;;5.99;91.72;99413.50;4918903;29;20044;-87
2022/01/31 07:37:23;;;;;;;10.00;2.67;;;;;;;6.12;92.77;99424.34;4949405;29;20039;-87
2022/01/31 07:39:50;;;;;;;16.45;2.72;;;;;;;6.02;94.26;99431.44;4928470;29;20032;-85
2022/01/31 07:42:16;;;;;;;16.73;2.80;;;;;;;5.87;94.65;99420.75;4919806;29;20083;-89
2022/01/31 07:44:43;;;;;;;14.40;2.35;;;;;;;5.74;94.44;99455.03;4920425;29;20031;-86
2022/01/31 07:47:09;;;;;;;16.92;2.65;;;;;;;5.78;95.73;99442.50;4945771;29;20063;-85
2022/01/31 07:49:35;;;;;;;15.10;2.60;;;;;;;5.79;96.50;99434.56;4924681;29;20443;-86
2022/01/31 07:52:00;;;;;;;23.55;3.75;;;;;;;5.74;98.08;99426.38;4917894;29;20039;-87
2022/01/31 07:54:27;;;;;;;14.73;3.17;;;;;;;5.95;99.57;99459.06;4914627;29;20035;-83
2022/01/31 07:56:53;;;;;;;17.20;2.35;;;;;;;5.94;100.00;99465.25;4908054;29;20060;-83
2022/01/31 07:59:19;;;;;;;19.38;3.97;;;;;;;6.08;100.00;99456.88;4907533;29;20398;-82
2022/01/31 08:01:44;;;;;;;20.30;3.08;;;;;;;5.89;100.00;99475.31;4937135;29;20435;-81
2022/01/31 08:04:10;;;;;;;19.67;3.95;;;;;;;6.11;100.00;99485.25;4944947;29;20054;-82
2022/01/31 08:06:36;;;;;;;15.10;2.78;;;;;;;6.15;100.00;99472.72;4923013;29;20034;-83
2022/01/31 08:09:01;;;;;;;16.20;2.63;;;;;;;6.07;98.75;99556.09;4947926;29;20043;-82
2022/01/31 08:11:32;;;;;;;10.95;3.45;;;;;;;5.86;98.74;99500.69;4908247;29;20041;-82
2022/01/31 08:14:06;;;;;;;9.65;2.28;;;;;;;5.98;98.60;99506.47;4946732;29;20034;-83
2022/01/31 08:16:33;;;;;;;24.77;4.22;;;;;;;5.77;98.30;99512.03;4916251;29;20064;-84
2022/01/31 08:18:59;;;;;;;20.20;2.92;;;;;;;5.90;96.93;99583.78;4944521;29;20478;-80
2022/01/31 08:21:25;;;;;;;13.45;2.30;;;;;;;5.90;94.97;99534.28;4941066;29;20086;-81
2022/01/31 08:23:51;;;;;;;16.15;2.33;;;;;;;5.67;94.19;99572.03;4944176;29;20031;-81
2022/01/31 08:26:19;;;;;;;14.18;2.55;;;;;;;5.91;93.01;99551.56;4948931;29;20449;-86
2022/01/31 08:28:59;;;;;;;13.18;2.13;;;;;;;6.39;93.39;99562.50;4913746;29;20707;-83
2022/01/31 08:31:34;;;;;;;11.90;1.95;;;;;;;6.26;91.93;99573.31;4931831;29;20393;-85
2022/01/31 08:36:34;;;;;;;14.85;2.70;;;;;;;6.27;90.89;99586.19;4947381;29;20040;-85
2022/01/31 08:39:29;;;;;;;10.85;2.00;;;;;;;6.45;92.76;99600.16;4949601;29;20047;-85
2022/01/31 08:41:55;;;;;;;11.30;1.90;;;;;;;6.20;92.45;99592.19;4923306;29;20071;-84
2022/01/31 08:44:22;;;;;;;12.95;2.90;;;;;;;6.17;93.62;99603.72;4946510;29;20074;-84
2022/01/31 08:46:48;;;;;;;16.85;2.10;;;;;;;6.13;94.06;99618.84;4933064;29;20035;-86
2022/01/31 08:49:15;;;;;;;13.70;2.47;;;;;;;5.98;93.11;99626.34;4920017;29;20024;-84
2022/01/31 08:51:42;;;;;;;12.50;2.60;;;;;;;6.01;92.85;99656.53;4928328;29;20023;-85
2022/01/31 08:54:09;;;;;;;18.27;2.83;;;;;;;6.22;91.54;99642.38;4935672;29;20043;-85
2022/01/31 08:56:40;;;;;;;10.85;2.20;;;;;;;5.89;91.20;99657.69;4948568;29;20398;-84
2022/01/31 08:59:08;;;;;;;14.63;2.03;;;;;;;5.92;91.45;99673.84;4949064;29;20027;-84
2022/01/31 09:01:34;;;;;;;13.68;3.08;;;;;;;5.96;91.88;99650.94;4947915;29;20035;-85
2022/01/31 09:04:05;;;;;;;9.20;2.45;;;;;;;6.16;92.09;99663.84;4944108;29;20089;-84
2022/01/31 09:06:33;;;;;;;15.15;2.17;;;;;;;6.25;91.38;99674.19;4931920;29;20118;-85
2022/01/31 09:09:00;;;;;;;13.65;2.38;;;;;;;6.25;91.16;99661.16;4924694;29;20050;-84
2022/01/31 09:11:28;;;;;;;16.05;2.22;;;;;;;6.13;90.03;99680.59;4949340;29;20039;-85
2022/01/31 09:13:54;;;;;;;7.38;2.17;;;;;;;6.07;89.05;99687.19;4946541;29;20036;-84
2022/01/31 09:16:20;;;;;;;13.20;2.10;;;;;;;5.89;87.78;99655.06;4929906;29;20051;-85
2022/01/31 09:18:46;;;;;;;7.70;2.30;;;;;;;6.21;86.03;99691.09;4928734;29;20035;-84
2022/01/31 09:21:11;;;;;;;12.75;2.80;;;;;;;5.87;84.08;99665.66;4945326;29;20046;-84
2022/01/31 09:23:38;;;;;;;10.43;1.98;;;;;;;6.18;83.87;99651.47;4944523;29;20039;-84
2022/01/31 09:26:03;;;;;;;12.85;2.10;;;;;;;6.06;81.76;99649.09;4947391;29;20031;-84
2022/01/31 09:28:30;;;;;;;9.32;1.63;;;;;;;6.42;81.96;99651.66;4946486;29;20034;-84
2022/01/31 09:30:55;;;;;;;12.02;2.45;;;;;;;6.20;81.06;99644.31;4948723;29;20027;-84
2022/01/31 09:33:22;;;;;;;9.00;1.98;;;;;;;6.29;79.71;99664.28;4948472;29;20039;-85
2022/01/31 09:35:48;;;;;;;8.82;2.20;;;;;;;6.37;79.89;99708.66;4947795;29;20055;-85
2022/01/31 09:38:17;;;;;;;10.38;2.03;;;;;;;6.27;79.86;99713.94;4928149;29;20036;-85
2022/01/31 09:40:43;;;;;;;11.23;2.22;;;;;;;6.43;80.40;99702.81;4949072;29;20114;-84
2022/01/31 09:48:33;;;;;;;10.60;2.65;;;;;;;6.42;78.21;99714.22;4924929;29;20446;-84
2022/01/31 09:51:16;;;;;;;11.60;1.83;;;;;;;6.23;77.22;99725.66;4952713;29;20070;-83
2022/01/31 09:54:00;;;;;;;7.15;1.92;;;;;;;6.53;77.31;99738.44;4929994;29;20520;-84
2022/01/31 09:56:30;;;;;;;10.93;2.00;;;;;;;6.61;78.50;99722.84;4936058;29;20031;-83
2022/01/31 09:58:57;;;;;;;11.90;1.85;;;;;;;6.64;78.38;99724.34;4938462;29;20063;-83
2022/01/31 10:01:33;;;;;;;10.48;1.90;;;;;;;6.55;76.78;99736.50;4942447;29;20059;-83
2022/01/31 10:04:02;;;;;;;7.40;1.65;;;;;;;6.38;77.21;99748.56;4940702;29;20040;-83
2022/01/31 10:06:32;;;;;;;10.80;2.40;;;;;;;6.51;78.17;99745.63;4923342;29;20042;-83
2022/01/31 10:09:13;;;;;;;9.40;1.85;;;;;;;6.63;77.65;99760.03;4938895;29;20040;-84
2022/01/31 10:11:50;;;;;;;15.18;1.95;;;;;;;6.76;78.19;99758.84;4941130;29;20039;-85
2022/01/31 10:17:27;;;;;;;9.48;1.85;;;;;;;7.10;77.53;99766.72;4926464;29;20525;-85
2022/01/31 10:19:57;;;;;;;12.75;2.35;;;;;;;6.56;76.35;99764.22;4906183;29;20036;-85
2022/01/31 10:22:25;;;;;;;13.00;2.55;;;;;;;6.78;76.49;99788.22;4908914;29;20039;-84
2022/01/31 10:24:53;;;;;;;10.90;1.80;;;;;;;6.78;76.46;99772.56;4926129;29;20035;-85
2022/01/31 10:27:28;;;;;;;15.88;3.22;;;;;;;6.68;76.25;99773.47;4921912;29;20051;-84
2022/01/31 10:30:09;;;;;;;15.55;2.35;;;;;;;7.08;76.23;99784.34;4904029;29;20496;-86
2022/01/31 10:32:37;;;;;;;9.10;2.10;;;;;;;6.72;76.52;99780.03;4904621;29;20130;-85
2022/01/31 10:35:07;;;;;;;14.02;1.95;;;;;;;6.95;76.16;99784.75;4925192;29;20032;-85
2022/01/31 10:37:35;;;;;;;14.32;2.53;;;;;;;6.76;76.44;99797.97;4925264;29;20051;-87
2022/01/31 10:54:38;;;;;;;13.38;2.00;;;;;;;7.24;75.08;99819.38;4910258;29;20027;-84
2022/01/31 10:57:19;;;;;;;8.02;1.70;;;;;;;7.59;73.73;99846.38;4906346;29;20087;-85
2022/01/31 10:59:47;;;;;;;9.40;1.95;;;;;;;7.68;72.58;99837.59;4909753;29;20414;-83
2022/01/31 11:02:18;;;;;;;12.07;2.13;;;;;;;7.21;73.17;99846.59;4907081;29;20039;-84
2022/01/31 11:04:46;;;;;;;10.77;1.83;;;;;;;7.09;74.00;99860.88;4908414;29;20171;-85
2022/01/31 11:07:13;;;;;;;14.48;2.65;;;;;;;7.13;74.48;99857.81;4927209;29;20042;-84
2022/01/31 11:09:41;;;;;;;15.32;2.05;;;;;;;7.22;74.25;99861.28;4925911;29;20127;-85
2022/01/31 11:12:08;;;;;;;11.48;1.90;;;;;;;7.13;75.30;99849.97;4909052;29;20055;-85
2022/01/31 11:14:36;;;;;;;5.85;2.28;;;;;;;7.10;74.17;99868.56;4925998;29;20035;-84
2022/01/31 11:17:10;;;;;;;10.18;2.45;;;;;;;7.10;74.56;99875.59;4944332;29;20052;-84
2022/01/31 11:19:35;;;;;;;;;;;;;;;7.21;74.86;99874.53;4926481;29;20038;-86
2022/01/31 11:22:06;;;;;;;13.15;2.15;;;;;;;7.26;74.67;99891.34;4943424;29;19918;-84
2022/01/31 11:24:36;;;;;;;13.00;2.47;;;;;;;7.16;75.78;99880.19;4927111;29;20027;-85
2022/01/31 11:27:10;;;;;;;13.35;2.28;;;;;;;7.38;75.69;99891.13;4924392;29;20028;-84
2022/01/31 11:29:37;;;;;;;;;;;;;;;7.29;74.56;99864.13;4927137;29;20027;-84
2022/01/31 11:32:04;;;;;;;12.77;3.10;;;;;;;7.31;74.39;99866.59;4942533;29;20365;-83
2022/01/31 11:34:31;;;;;;;11.30;2.15;;;;;;;7.26;74.20;99929.72;4943878;29;20038;-85
2022/01/31 11:36:56;;;;;;;11.18;1.83;;;;;;;7.37;74.05;99872.03;4946905;29;20064;-84
2022/01/31 11:39:22;;;;;;;16.67;2.90;;;;;;;7.58;74.59;99904.81;4942417;29;20023;-84
2022/01/31 11:41:53;;;;;;;7.97;1.63;;;;;;;7.20;74.21;99883.31;4944421;29;20387;-85
2022/01/31 11:44:37;;;;;;;9.52;1.83;;;;;;;7.50;74.74;99889.06;4928160;29;20439;-84
2022/01/31 11:47:05;;;;;;;8.63;2.72;;;;;;;7.64;74.38;99892.91;4926674;29;20394;-85
2022/01/31 11:49:50;;;;;;;13.32;2.83;;;;;;;7.79;73.80;99907.06;4944817;29;20037;-84
2022/01/31 11:52:19;;;;;;;8.50;1.58;;;;;;;7.36;73.34;99887.84;4925265;29;20049;-84
2022/01/31 11:54:47;;;;;;;10.50;1.98;;;;;;;7.62;73.57;99911.38;4941876;29;20039;-84
2022/01/31 11:57:16;;;;;;;7.80;1.92;;;;;;;7.72;73.68;99912.06;4922544;29;20400;-85
2022/01/31 11:59:42;;;;;;;17.63;2.10;;;;;;;7.70;74.58;99905.38;4942717;29;20092;-85
2022/01/31 12:02:12;;;;;;;8.55;2.20;;;;;;;7.58;72.99;99925.72;4941345;29;20063;-84
2022/01/31 12:04:44;;;;;;;10.80;2.72;;;;;;;7.61;74.05;99898.44;4943153;29;20114;-85
2022/01/31 12:07:32;;;;;;;16.77;2.30;;;;;;;7.70;74.19;99910.59;4925907;29;20393;-86
2022/01/31 12:10:00;;;;;;;12.73;2.15;;;;;;;7.74;74.38;99900.66;4944496;29;20036;-85
2022/01/31 12:12:39;;;;;;;13.95;2.03;;;;;;;7.48;73.32;99915.38;4923909;29;20043;-85
2022/01/31 12:18:30;;;;;;;7.10;1.60;;;;;;;7.56;72.56;99894.50;4929732;29;20051;-85